Stratton, Texas
Current Conditions -  °F | °C
As of 4:51 AM on Wednesday 26 Nov 2014 (Local Time) from KVCT Reporting Station
Clear Clear  
Wind Chill: 44°   Ceiling: Unl
Heat Index: 47°   Visibility: 10mi
Dew Point: 38°   Wind: 7mph
Humidity: 71%   Direction: 230°SW
Pressure: 30.23"   Gusts: NA
Location:  29.0941°N, 97.191°W
Report Text: KVCT 261051Z AUTO 23006KT 10SM CLR 08/03 A3023 RMK AO2 SLP236 T00830033
Loading
Personal Weather Stations






























Interactive Weather Map New forecast layout! Learn more

10-Day Weather Forecast

Advertisements
Track Severe Weather on mobile